createdAt,value
2018-09-12T00:00:56.719Z,6.10
2018-09-12T00:03:23.968Z,8.15
2018-09-12T00:05:51.202Z,8.78
2018-09-12T00:08:18.488Z,5.60
2018-09-12T00:10:45.703Z,7.00
2018-09-12T00:13:12.939Z,7.33
2018-09-12T00:15:40.200Z,7.25
2018-09-12T00:18:07.420Z,7.70
2018-09-12T00:20:34.642Z,8.63
2018-09-12T00:23:01.885Z,9.50
2018-09-12T00:25:29.123Z,7.03
2018-09-12T00:27:56.341Z,7.60
2018-09-12T00:30:23.583Z,6.80
2018-09-12T00:32:50.853Z,6.60
2018-09-12T00:35:18.092Z,7.45
2018-09-12T00:37:45.336Z,8.88
2018-09-12T00:40:12.594Z,5.85
2018-09-12T00:42:39.802Z,8.20
2018-09-12T00:45:07.051Z,7.92
2018-09-12T00:47:34.516Z,5.92
2018-09-12T00:50:01.848Z,11.97
2018-09-12T00:52:29.079Z,8.15
2018-09-12T00:54:56.328Z,8.43
2018-09-12T00:57:23.566Z,6.37
2018-09-12T00:59:50.784Z,8.60
2018-09-12T01:02:18.023Z,6.08
2018-09-12T01:04:45.246Z,7.90
2018-09-12T01:07:12.499Z,10.93
2018-09-12T01:09:39.723Z,9.45
2018-09-12T01:12:06.957Z,7.08
2018-09-12T01:14:34.163Z,6.28
2018-09-12T01:17:01.422Z,6.42
2018-09-12T01:19:29.359Z,8.43
2018-09-12T01:21:56.602Z,5.72
2018-09-12T01:24:23.872Z,6.47
2018-09-12T01:26:51.119Z,9.95
2018-09-12T01:29:18.441Z,6.78
2018-09-12T01:31:45.680Z,6.85
2018-09-12T01:34:12.890Z,8.53
2018-09-12T01:36:40.396Z,7.97
2018-09-12T01:39:08.600Z,8.15
2018-09-12T01:41:35.925Z,8.90
2018-09-12T01:44:03.190Z,7.35
2018-09-12T01:46:30.424Z,8.78
2018-09-12T01:48:57.689Z,5.80
2018-09-12T01:51:24.970Z,9.23
2018-09-12T01:53:52.197Z,7.33
2018-09-12T01:56:19.447Z,7.03
2018-09-12T01:58:46.703Z,6.87
2018-09-12T02:01:13.960Z,7.80
2018-09-12T02:03:41.180Z,8.05
2018-09-12T02:06:08.427Z,7.10
2018-09-12T02:08:35.955Z,7.28
2018-09-12T02:11:03.263Z,9.28
2018-09-12T02:13:30.571Z,5.75
2018-09-12T02:15:57.823Z,8.83
2018-09-12T02:18:25.079Z,5.92
2018-09-12T02:20:52.313Z,7.17
2018-09-12T02:23:19.565Z,8.63
2018-09-12T02:25:46.814Z,8.60
2018-09-12T02:28:14.072Z,9.15
2018-09-12T02:30:41.332Z,7.75
2018-09-12T02:33:08.582Z,8.15
2018-09-12T02:35:40.380Z,9.05
2018-09-12T02:38:07.608Z,7.75
2018-09-12T02:40:34.855Z,7.77
2018-09-12T02:43:02.133Z,6.33
2018-09-12T02:45:29.372Z,7.72
2018-09-12T02:47:56.584Z,6.28
2018-09-12T02:50:23.869Z,6.65
2018-09-12T02:52:51.103Z,8.90
2018-09-12T02:55:18.310Z,7.22
2018-09-12T02:57:45.513Z,6.77
2018-09-12T03:00:12.797Z,8.33
2018-09-12T03:02:40.043Z,8.33
2018-09-12T03:05:07.279Z,8.80
2018-09-12T03:07:34.539Z,10.13
2018-09-12T03:10:01.867Z,9.15
2018-09-12T03:12:29.120Z,6.83
2018-09-12T03:14:56.407Z,5.85
2018-09-12T03:17:24.697Z,8.83
2018-09-12T03:19:51.950Z,7.97
2018-09-12T03:22:19.219Z,10.70
2018-09-12T03:24:46.462Z,6.85
2018-09-12T03:27:13.684Z,7.42
2018-09-12T03:29:40.915Z,6.95
2018-09-12T03:32:08.142Z,7.22
2018-09-12T03:34:35.453Z,7.00
2018-09-12T03:37:02.710Z,7.40
2018-09-12T03:39:29.947Z,7.72
2018-09-12T03:41:57.188Z,7.92
2018-09-12T03:44:25.839Z,8.10
2018-09-12T03:46:53.318Z,6.37
2018-09-12T03:49:20.609Z,6.12
2018-09-12T03:51:47.889Z,6.87
2018-09-12T03:54:15.155Z,7.83
2018-09-12T03:56:42.737Z,8.45
2018-09-12T03:59:10.252Z,8.25
2018-09-12T04:01:37.563Z,7.70
2018-09-12T04:04:05.218Z,8.23
2018-09-12T04:06:32.724Z,8.18
2018-09-12T04:09:00.002Z,9.00
2018-09-12T04:11:27.678Z,8.15
2018-09-12T04:13:55.188Z,5.30
2018-09-12T04:16:22.460Z,9.27
2018-09-12T04:18:49.949Z,8.98
2018-09-12T04:21:17.346Z,7.12
2018-09-12T04:23:44.669Z,9.98
2018-09-12T04:26:12.093Z,7.10
2018-09-12T04:28:39.365Z,8.27
2018-09-12T04:31:06.784Z,7.23
2018-09-12T04:33:34.120Z,10.35
2018-09-12T04:36:01.372Z,7.33
2018-09-12T04:38:28.655Z,7.67
2018-09-12T04:40:55.925Z,7.58
2018-09-12T04:43:23.216Z,5.97
2018-09-12T04:45:50.435Z,11.78
2018-09-12T04:48:17.774Z,8.20
2018-09-12T04:50:44.993Z,9.27
2018-09-12T04:53:12.265Z,7.47
2018-09-12T04:55:39.534Z,8.75
2018-09-12T04:58:06.867Z,7.10
2018-09-12T05:00:34.179Z,9.18
2018-09-12T05:03:01.406Z,6.90
2018-09-12T05:05:28.661Z,5.70
2018-09-12T05:07:55.919Z,7.33
2018-09-12T05:10:23.131Z,7.30
2018-09-12T05:12:50.397Z,9.30
2018-09-12T05:15:17.660Z,5.90
2018-09-12T05:17:44.972Z,8.08
2018-09-12T05:20:12.196Z,9.07
2018-09-12T05:22:39.420Z,8.15
2018-09-12T05:25:06.694Z,9.97
2018-09-12T05:27:33.987Z,9.25
2018-09-12T05:30:01.257Z,10.00
2018-09-12T05:32:28.537Z,10.50
2018-09-12T05:34:55.821Z,10.68
2018-09-12T05:37:23.144Z,10.88
2018-09-12T05:39:50.491Z,9.40
2018-09-12T05:42:17.754Z,9.60
2018-09-12T05:44:45.104Z,12.65
2018-09-12T05:47:12.357Z,6.12
2018-09-12T05:49:39.651Z,9.53
2018-09-12T05:52:06.984Z,10.88
2018-09-12T05:54:34.299Z,9.20
2018-09-12T05:57:01.535Z,7.35
2018-09-12T05:59:28.779Z,7.58
2018-09-12T06:01:56.030Z,11.10
2018-09-12T06:04:23.348Z,8.15
2018-09-12T06:06:50.622Z,8.95
2018-09-12T06:09:17.789Z,7.53
2018-09-12T06:11:45.013Z,9.10
2018-09-12T06:14:12.366Z,12.88
2018-09-12T06:16:39.643Z,9.35
2018-09-12T06:19:06.957Z,7.60
2018-09-12T06:21:34.429Z,9.95
2018-09-12T06:24:01.743Z,10.82
2018-09-12T06:26:28.983Z,8.33
2018-09-12T06:28:56.201Z,8.55
2018-09-12T06:31:23.426Z,7.78
2018-09-12T06:33:50.709Z,8.78
2018-09-12T06:36:17.953Z,7.10
2018-09-12T06:38:45.248Z,10.53
2018-09-12T06:41:12.468Z,10.30
2018-09-12T06:43:39.791Z,9.33
2018-09-12T06:46:07.007Z,7.72
2018-09-12T06:48:34.244Z,7.17
2018-09-12T06:51:01.537Z,8.00
2018-09-12T06:53:28.968Z,8.48
2018-09-12T06:55:56.367Z,7.75
2018-09-12T06:58:23.615Z,11.03
2018-09-12T07:00:50.920Z,8.18
2018-09-12T07:03:18.099Z,10.53
2018-09-12T07:05:45.338Z,8.85
2018-09-12T07:08:12.615Z,8.65
2018-09-12T07:10:39.869Z,9.18
2018-09-12T07:13:07.111Z,7.60
2018-09-12T07:15:34.388Z,9.43
2018-09-12T07:18:01.669Z,9.48
2018-09-12T07:20:28.968Z,11.05
2018-09-12T07:22:56.246Z,9.25
2018-09-12T07:25:23.507Z,10.05
2018-09-12T07:27:50.769Z,7.47
2018-09-12T07:30:18.067Z,7.53
2018-09-12T07:32:45.318Z,9.28
2018-09-12T07:35:12.599Z,10.18
2018-09-12T07:37:39.856Z,8.68
2018-09-12T07:40:07.147Z,7.12
2018-09-12T07:42:34.487Z,7.62
2018-09-12T07:45:01.827Z,7.60
2018-09-12T07:47:29.027Z,7.42
2018-09-12T07:49:56.271Z,10.75
2018-09-12T07:52:23.532Z,6.72
2018-09-12T07:54:50.767Z,6.50
2018-09-12T07:57:18.031Z,8.80
2018-09-12T07:59:45.305Z,9.58
2018-09-12T08:02:12.555Z,10.48
2018-09-12T08:04:39.813Z,12.98
2018-09-12T08:07:07.031Z,11.73
2018-09-12T08:09:34.248Z,8.78
2018-09-12T08:12:01.499Z,12.58
2018-09-12T08:14:28.719Z,8.70
2018-09-12T08:16:55.945Z,7.53
2018-09-12T08:19:23.203Z,8.68
2018-09-12T08:21:50.510Z,7.90
2018-09-12T08:24:17.744Z,8.90
2018-09-12T08:26:45.009Z,9.70
2018-09-12T08:29:12.232Z,8.43
2018-09-12T08:31:39.457Z,7.50
2018-09-12T08:34:06.729Z,8.90
2018-09-12T08:36:33.986Z,7.22
2018-09-12T08:39:01.212Z,6.78
2018-09-12T08:41:28.450Z,7.50
2018-09-12T08:43:55.708Z,6.87
2018-09-12T08:46:22.952Z,8.53
2018-09-12T08:48:50.233Z,8.55
2018-09-12T08:51:17.464Z,6.03
2018-09-12T08:53:44.710Z,6.92
2018-09-12T08:56:11.968Z,6.90
2018-09-12T08:58:39.300Z,7.60
2018-09-12T09:01:06.568Z,6.67
2018-09-12T09:03:33.815Z,6.85
2018-09-12T09:06:01.065Z,5.05
2018-09-12T09:08:28.398Z,7.85
2018-09-12T09:10:55.691Z,4.83
2018-09-12T09:13:22.932Z,10.15
2018-09-12T09:15:50.160Z,8.88
2018-09-12T09:18:17.428Z,6.35
2018-09-12T09:20:44.747Z,5.78
2018-09-12T09:23:11.981Z,6.67
2018-09-12T09:25:39.223Z,4.80
2018-09-12T09:28:06.459Z,6.15
2018-09-12T09:30:33.836Z,7.20
2018-09-12T09:33:01.187Z,7.47
2018-09-12T09:35:29.204Z,5.03
2018-09-12T09:37:56.394Z,5.40
2018-09-12T09:40:23.664Z,4.15
2018-09-12T09:42:51.006Z,4.95
2018-09-12T09:45:18.223Z,4.75
2018-09-12T09:47:45.593Z,6.30
2018-09-12T09:50:12.839Z,3.62
2018-09-12T09:52:40.079Z,3.50
2018-09-12T09:55:07.404Z,4.40
2018-09-12T09:57:35.252Z,4.30
2018-09-12T10:00:02.635Z,6.15
2018-09-12T10:02:35.636Z,3.35
2018-09-12T10:07:13.448Z,2.90
2018-09-12T10:09:40.705Z,4.60
2018-09-12T10:12:07.945Z,3.60
2018-09-12T10:14:35.222Z,4.08
2018-09-12T10:17:02.522Z,4.97
2018-09-12T10:19:29.811Z,4.87
2018-09-12T10:21:57.067Z,4.55
2018-09-12T10:24:24.435Z,3.42
2018-09-12T10:26:51.669Z,2.80
2018-09-12T10:29:19.020Z,3.12
2018-09-12T10:31:46.603Z,5.53
2018-09-12T10:34:13.919Z,3.25
2018-09-12T10:36:41.189Z,3.08
2018-09-12T10:39:10.357Z,4.62
2018-09-12T10:41:37.673Z,5.20
2018-09-12T10:44:05.068Z,2.40
2018-09-12T10:46:34.607Z,4.03
2018-09-12T10:49:01.885Z,2.20
2018-09-12T10:51:29.164Z,3.80
2018-09-12T10:53:56.415Z,2.15
2018-09-12T10:56:23.677Z,4.10
2018-09-12T10:58:50.963Z,4.67
2018-09-12T11:01:18.282Z,3.60
2018-09-12T11:03:45.672Z,2.85
2018-09-12T11:06:13.014Z,6.67
2018-09-12T11:08:40.244Z,2.10
2018-09-12T11:11:07.492Z,6.05
2018-09-12T11:13:34.796Z,2.72
2018-09-12T11:16:02.092Z,6.12
2018-09-12T11:18:29.400Z,3.83
2018-09-12T11:20:56.745Z,5.05
2018-09-12T11:23:24.332Z,4.58
2018-09-12T11:25:51.579Z,2.95
2018-09-12T11:28:18.888Z,2.92
2018-09-12T11:30:46.151Z,4.33
2018-09-12T11:33:13.432Z,3.37
2018-09-12T11:35:40.738Z,2.98
2018-09-12T11:38:08.049Z,2.45
2018-09-12T11:40:35.345Z,2.20
2018-09-12T11:43:04.713Z,2.75
2018-09-12T11:45:31.976Z,2.85
2018-09-12T11:47:59.301Z,2.45
2018-09-12T11:50:26.595Z,3.60
2018-09-12T11:52:53.843Z,2.92
2018-09-12T11:55:21.136Z,2.00
2018-09-12T11:57:48.428Z,3.83
2018-09-12T12:00:15.739Z,3.70
2018-09-12T12:02:42.997Z,4.50
2018-09-12T12:05:10.232Z,3.17
2018-09-12T12:07:37.499Z,2.12
2018-09-12T12:10:04.800Z,3.55
2018-09-12T12:12:32.052Z,2.92
2018-09-12T12:14:59.328Z,2.02
2018-09-12T12:17:26.597Z,2.08
2018-09-12T12:19:53.892Z,3.90
2018-09-12T12:22:21.104Z,3.50
2018-09-12T12:24:48.337Z,2.85
2018-09-12T12:27:15.578Z,4.03
2018-09-12T12:29:42.818Z,2.83
2018-09-12T12:32:10.068Z,3.30
2018-09-12T12:34:37.328Z,2.92
2018-09-12T12:37:04.657Z,3.05
2018-09-12T12:39:31.946Z,2.25
2018-09-12T12:41:59.275Z,3.98
2018-09-12T12:44:26.526Z,2.17
2018-09-12T12:46:53.817Z,2.67
2018-09-12T12:49:21.108Z,3.85
2018-09-12T12:51:48.346Z,6.12
2018-09-12T12:54:15.568Z,3.02
2018-09-12T12:56:42.862Z,2.80
2018-09-12T12:59:10.176Z,4.87
2018-09-12T13:01:37.480Z,3.92
2018-09-12T13:04:04.769Z,5.25
2018-09-12T13:06:32.017Z,4.30
2018-09-12T13:08:59.346Z,4.53
2018-09-12T13:11:26.591Z,3.17
2018-09-12T13:13:53.860Z,4.95
2018-09-12T13:16:21.099Z,2.80
2018-09-12T13:18:48.374Z,3.05
2018-09-12T13:21:15.770Z,3.60
2018-09-12T13:23:42.972Z,3.35
2018-09-12T13:26:10.257Z,2.58
2018-09-12T13:28:37.555Z,2.30
2018-09-12T13:31:04.916Z,4.72
2018-09-12T13:33:32.171Z,2.72
2018-09-12T13:35:59.406Z,2.60
2018-09-12T13:38:26.700Z,2.70
2018-09-12T13:40:54.004Z,2.42
2018-09-12T13:43:21.257Z,2.85
2018-09-12T13:45:48.517Z,3.42
2018-09-12T13:48:17.340Z,6.35
2018-09-12T13:50:44.580Z,2.42
2018-09-12T13:53:13.864Z,4.30
2018-09-12T13:55:41.098Z,1.87
2018-09-12T13:58:08.376Z,5.50
2018-09-12T14:00:35.708Z,2.77
2018-09-12T14:03:03.364Z,4.00
2018-09-12T14:05:32.798Z,2.77
2018-09-12T14:08:00.555Z,3.55
2018-09-12T14:10:27.816Z,3.02
2018-09-12T14:12:55.178Z,2.92
2018-09-12T14:15:22.523Z,3.90
2018-09-12T14:17:49.928Z,2.00
2018-09-12T14:20:17.249Z,2.87
2018-09-12T14:22:44.658Z,2.95
2018-09-12T14:25:12.003Z,4.12
2018-09-12T14:27:39.166Z,2.70
2018-09-12T14:30:06.443Z,4.30
2018-09-12T14:32:33.756Z,5.12
2018-09-12T14:35:01.766Z,3.20
2018-09-12T14:37:29.089Z,4.03
2018-09-12T14:39:56.413Z,9.33
2018-09-12T14:42:23.742Z,3.50
2018-09-12T14:44:51.016Z,4.35
2018-09-12T14:47:18.308Z,5.40
2018-09-12T14:49:45.627Z,3.33
2018-09-12T14:52:12.940Z,3.67
2018-09-12T14:54:40.220Z,2.83
2018-09-12T14:57:07.535Z,6.92
2018-09-12T14:59:34.777Z,5.10
2018-09-12T15:02:02.046Z,3.20
2018-09-12T15:04:29.336Z,3.33
2018-09-12T15:06:56.571Z,5.33
2018-09-12T15:09:23.851Z,3.45
2018-09-12T15:11:52.076Z,2.58
2018-09-12T15:14:19.652Z,4.45
2018-09-12T15:16:47.091Z,4.55
2018-09-12T15:19:14.328Z,4.60
2018-09-12T15:21:41.600Z,3.90
2018-09-12T15:24:09.211Z,4.70
2018-09-12T15:26:36.550Z,4.05
2018-09-12T15:29:03.888Z,3.65
2018-09-12T15:31:31.268Z,5.95
2018-09-12T15:33:58.566Z,4.37
2018-09-12T15:36:25.864Z,3.45
2018-09-12T15:38:53.215Z,4.90
2018-09-12T15:41:20.512Z,2.83
2018-09-12T15:43:47.800Z,5.03
2018-09-12T15:46:15.016Z,5.20
2018-09-12T15:48:42.331Z,3.52
2018-09-12T15:51:09.576Z,7.70
2018-09-12T15:53:36.840Z,3.58
2018-09-12T15:56:04.111Z,3.98
2018-09-12T15:58:31.428Z,2.80
2018-09-12T16:00:58.771Z,4.78
2018-09-12T16:03:26.186Z,3.52
2018-09-12T16:05:53.395Z,4.22
2018-09-12T16:08:20.616Z,7.00
2018-09-12T16:10:47.844Z,3.72
2018-09-12T16:13:15.098Z,3.83
2018-09-12T16:15:42.388Z,4.75
2018-09-12T16:18:09.630Z,7.25
2018-09-12T16:20:36.852Z,6.92
2018-09-12T16:23:04.272Z,8.95
2018-09-12T16:25:31.451Z,6.22
2018-09-12T16:27:58.697Z,5.30
2018-09-12T16:30:27.304Z,6.92
2018-09-12T16:32:56.955Z,5.40
2018-09-12T16:35:24.383Z,10.08
2018-09-12T16:37:52.646Z,9.43
2018-09-12T16:40:19.993Z,7.22
2018-09-12T16:42:47.315Z,5.33
2018-09-12T16:45:14.587Z,6.78
2018-09-12T16:47:41.826Z,7.58
2018-09-12T16:50:09.132Z,6.22
2018-09-12T16:52:36.366Z,6.33
2018-09-12T16:55:03.851Z,8.10
2018-09-12T16:57:31.155Z,5.83
2018-09-12T16:59:58.375Z,5.37
2018-09-12T17:02:25.629Z,4.28
2018-09-12T17:04:52.838Z,6.62
2018-09-12T17:07:20.081Z,6.58
2018-09-12T17:09:47.293Z,7.53
2018-09-12T17:12:14.527Z,9.93
2018-09-12T17:14:41.751Z,12.95
2018-09-12T17:17:11.080Z,5.22
2018-09-12T17:19:38.344Z,8.88
2018-09-12T17:22:05.999Z,8.18
2018-09-12T17:24:34.271Z,13.53
2018-09-12T17:27:02.709Z,15.72
2018-09-12T17:29:31.756Z,12.20
2018-09-12T17:32:01.496Z,10.03
2018-09-12T17:34:28.804Z,9.55
2018-09-12T17:36:56.026Z,22.48
2018-09-12T17:39:28.002Z,13.50
2018-09-12T17:41:55.311Z,16.62
2018-09-12T17:44:24.673Z,14.40
2018-09-12T17:46:51.958Z,11.70
2018-09-12T17:49:19.247Z,15.75
2018-09-12T17:51:46.512Z,14.40
2018-09-12T17:54:13.796Z,11.00
2018-09-12T17:56:42.884Z,13.60
2018-09-12T17:59:10.136Z,10.13
2018-09-12T18:01:37.379Z,9.55
2018-09-12T18:04:04.676Z,11.03
2018-09-12T18:06:31.946Z,9.58
2018-09-12T18:08:59.240Z,8.93
2018-09-12T18:11:26.576Z,14.00
2018-09-12T18:13:53.804Z,16.48
2018-09-12T18:16:21.069Z,10.70
2018-09-12T18:18:48.365Z,6.42
2018-09-12T18:21:15.710Z,12.95
2018-09-12T18:23:42.985Z,9.60
2018-09-12T18:26:10.366Z,9.83
2018-09-12T18:28:37.703Z,12.55
2018-09-12T18:31:06.928Z,10.50
2018-09-12T18:33:34.419Z,8.48
2018-09-12T18:36:02.915Z,7.72
2018-09-12T18:38:30.191Z,6.45
2018-09-12T18:40:57.576Z,7.05
2018-09-12T18:43:25.039Z,7.30
2018-09-12T18:45:55.008Z,9.08
2018-09-12T18:48:22.356Z,7.12
2018-09-12T18:50:49.650Z,12.95
2018-09-12T18:53:17.028Z,7.97
2018-09-12T18:55:44.347Z,8.93
2018-09-12T18:58:11.886Z,6.97
2018-09-12T19:00:43.437Z,10.00
2018-09-12T19:03:10.816Z,6.55
2018-09-12T19:05:43.124Z,9.28
2018-09-12T19:08:13.737Z,6.42
2018-09-12T19:10:41.060Z,9.13
2018-09-12T19:13:10.278Z,8.30
2018-09-12T19:15:37.622Z,7.15
2018-09-12T19:18:04.980Z,7.75
2018-09-12T19:20:32.233Z,7.58
2018-09-12T19:22:59.687Z,6.62
2018-09-12T19:25:27.068Z,7.42
2018-09-12T19:27:58.398Z,6.15
2018-09-12T19:30:25.827Z,13.35
2018-09-12T19:32:54.660Z,7.67
2018-09-12T19:35:23.351Z,5.83
2018-09-12T19:38:00.943Z,6.42
2018-09-12T19:40:29.327Z,8.80
2018-09-12T19:42:58.532Z,9.80
2018-09-12T19:45:25.943Z,9.25
2018-09-12T19:47:53.825Z,8.48
2018-09-12T19:50:22.237Z,10.08
2018-09-12T19:52:50.024Z,10.20
2018-09-12T19:55:17.393Z,6.15
2018-09-12T19:57:45.867Z,9.43
2018-09-12T20:00:17.120Z,7.58
2018-09-12T20:02:47.177Z,8.73
2018-09-12T20:05:15.558Z,10.60
2018-09-12T20:07:43.021Z,8.38
2018-09-12T20:10:10.345Z,8.28
2018-09-12T20:12:37.620Z,7.12
2018-09-12T20:15:05.781Z,8.15
2018-09-12T20:17:33.432Z,9.10
2018-09-12T20:20:01.031Z,9.15
2018-09-12T20:22:28.666Z,8.33
2018-09-12T20:24:56.058Z,8.00
2018-09-12T20:27:23.779Z,7.25
2018-09-12T20:29:57.120Z,8.80
2018-09-12T20:32:24.758Z,7.35
2018-09-12T20:34:52.239Z,9.18
2018-09-12T20:37:19.486Z,8.50
2018-09-12T20:39:53.201Z,6.65
2018-09-12T20:42:24.078Z,9.60
2018-09-12T20:47:23.612Z,9.23
2018-09-12T20:49:50.944Z,7.78
2018-09-12T20:52:18.363Z,12.95
2018-09-12T20:54:45.620Z,8.80
2018-09-12T20:57:12.944Z,7.00
2018-09-12T20:59:40.171Z,8.60
2018-09-12T21:02:07.643Z,8.15
2018-09-12T21:04:34.924Z,7.85
2018-09-12T21:07:03.952Z,7.92
2018-09-12T21:09:31.493Z,7.45
2018-09-12T21:11:59.136Z,8.75
2018-09-12T21:14:26.424Z,9.65
2018-09-12T21:16:53.720Z,8.03
2018-09-12T21:19:20.941Z,6.08
2018-09-12T21:21:48.215Z,10.60
2018-09-12T21:24:15.449Z,11.18
2018-09-12T21:26:45.662Z,8.78
2018-09-12T21:29:13.007Z,6.20
2018-09-12T21:31:40.303Z,8.18
2018-09-12T21:34:07.540Z,7.00
2018-09-12T21:36:34.847Z,9.35
2018-09-12T21:39:06.728Z,8.75
2018-09-12T21:41:34.014Z,9.63
2018-09-12T21:44:01.226Z,10.38
2018-09-12T21:46:28.862Z,11.25
2018-09-12T21:48:56.116Z,8.78
2018-09-12T21:51:23.376Z,9.50
2018-09-12T21:53:50.616Z,10.23
2018-09-12T21:56:21.329Z,9.35
2018-09-12T21:58:48.612Z,8.45
2018-09-12T22:01:21.433Z,8.03
2018-09-12T22:03:49.412Z,12.18
2018-09-12T22:06:16.972Z,8.58
2018-09-12T22:08:44.245Z,9.28
2018-09-12T22:11:11.496Z,9.38
2018-09-12T22:13:38.901Z,9.40
2018-09-12T22:16:06.417Z,12.88
2018-09-12T22:18:35.367Z,11.55
2018-09-12T22:21:05.017Z,10.60
2018-09-12T22:23:34.532Z,7.58
2018-09-12T22:26:01.973Z,6.80
2018-09-12T22:28:29.315Z,6.70
2018-09-12T22:30:56.550Z,9.60
2018-09-12T22:33:23.853Z,8.30
2018-09-12T22:35:51.092Z,9.25
2018-09-12T22:41:32.884Z,11.00
2018-09-12T22:44:00.115Z,9.15
2018-09-12T22:46:48.863Z,6.85
2018-09-12T22:49:16.196Z,8.40
2018-09-12T22:51:43.456Z,8.05
2018-09-12T22:54:10.683Z,7.37
2018-09-12T22:56:38.314Z,10.38
2018-09-12T22:59:05.649Z,7.37
2018-09-12T23:01:33.545Z,9.13
2018-09-12T23:04:00.853Z,9.35
2018-09-12T23:06:28.128Z,7.78
2018-09-12T23:08:55.473Z,8.70
2018-09-12T23:11:22.804Z,9.23
2018-09-12T23:13:50.073Z,7.85
2018-09-12T23:16:17.332Z,8.35
2018-09-12T23:18:44.625Z,10.20
2018-09-12T23:21:14.317Z,9.38
2018-09-12T23:23:42.433Z,8.88
2018-09-12T23:26:09.782Z,7.50
2018-09-12T23:28:37.099Z,11.33
2018-09-12T23:31:04.440Z,11.43
2018-09-12T23:33:31.699Z,7.42
2018-09-12T23:35:59.545Z,8.60
2018-09-12T23:38:26.985Z,7.37
2018-09-12T23:40:54.284Z,8.00
2018-09-12T23:43:27.184Z,8.08
2018-09-12T23:45:55.965Z,8.28
2018-09-12T23:48:23.239Z,9.65
2018-09-12T23:50:50.524Z,9.65
2018-09-12T23:53:17.872Z,7.87
2018-09-12T23:55:46.232Z,9.43
2018-09-12T23:58:13.523Z,7.97
